Time;durP1;ratioP1;P1;durP2;ratioP2;P2;SDS_P1;SDS_P2;PMS_P1;PMS_P2;Temp;Humidity;BMP_temperature;BMP_pressure;BME280_temperature;BME280_humidity;BME280_pressure;Samples;Min_cycle;Max_cycle;Signal;HPM_P1;HPM_P2
2022/09/23 00:00:00;;;;;;;26.38;21.33;;;8.90;99.90;;;;;;5050157;28;20041;-65
2022/09/23 00:02:26;;;;;;;27.65;22.60;;;8.80;99.90;;;;;;5049244;28;20033;-65
2022/09/23 00:04:51;;;;;;;29.02;23.52;;;8.80;99.90;;;;;;5042991;28;20399;-65
2022/09/23 00:07:17;;;;;;;31.08;23.00;;;8.80;99.90;;;;;;5030938;28;20032;-65
2022/09/23 00:09:43;;;;;;;28.55;24.73;;;8.70;99.90;;;;;;5050120;28;20216;-65
2022/09/23 00:12:09;;;;;;;34.22;26.30;;;8.80;99.90;;;;;;5050150;28;20044;-64
2022/09/23 00:14:37;;;;;;;31.73;25.98;;;8.80;99.90;;;;;;5041139;28;20049;-65
2022/09/23 00:17:03;;;;;;;32.75;24.67;;;8.80;99.90;;;;;;5046918;28;20033;-64
2022/09/23 00:19:29;;;;;;;28.98;24.90;;;8.80;99.90;;;;;;5049946;28;20087;-64
2022/09/23 00:21:55;;;;;;;30.95;25.02;;;8.80;99.90;;;;;;5045965;28;20144;-65
2022/09/23 00:24:22;;;;;;;33.13;26.70;;;8.80;99.90;;;;;;5050011;28;20103;-65
2022/09/23 00:26:48;;;;;;;33.72;26.80;;;8.80;99.90;;;;;;5049311;28;20073;-65
2022/09/23 00:29:14;;;;;;;41.92;26.73;;;8.80;99.90;;;;;;5050127;28;20080;-65
2022/09/23 00:31:40;;;;;;;35.10;26.33;;;8.80;99.90;;;;;;5037924;28;20499;-65
2022/09/23 00:34:09;;;;;;;30.52;25.25;;;8.80;99.90;;;;;;5049604;28;20061;-65
2022/09/23 00:36:35;;;;;;;33.20;25.73;;;8.80;99.90;;;;;;5049506;28;20037;-65
2022/09/23 00:39:02;;;;;;;32.58;25.48;;;8.80;99.90;;;;;;5039478;28;20079;-65
2022/09/23 00:41:29;;;;;;;33.50;27.23;;;8.80;99.90;;;;;;5051296;28;20526;-65
2022/09/23 00:43:58;;;;;;;33.80;27.65;;;8.70;99.90;;;;;;5054014;28;20045;-65
2022/09/23 00:46:44;;;;;;;34.95;27.02;;;8.70;99.90;;;;;;5043239;28;20092;-65
2022/09/23 00:49:20;;;;;;;33.00;26.90;;;8.80;99.90;;;;;;5046173;28;20049;-65
2022/09/23 00:51:53;;;;;;;33.35;27.95;;;8.80;99.90;;;;;;5019235;28;20049;-65
2022/09/23 00:54:20;;;;;;;33.28;26.35;;;8.80;99.90;;;;;;5051215;28;20041;-65
2022/09/23 00:56:46;;;;;;;37.88;29.27;;;8.80;99.90;;;;;;5048428;28;20072;-65
2022/09/23 00:59:12;;;;;;;37.25;27.88;;;8.70;99.90;;;;;;5053162;28;20075;-65
2022/09/23 01:01:38;;;;;;;35.08;28.52;;;8.70;99.90;;;;;;5053608;28;20041;-65
2022/09/23 01:04:06;;;;;;;35.72;28.27;;;8.80;99.90;;;;;;5047722;28;20033;-64
2022/09/23 01:06:32;;;;;;;35.70;28.38;;;8.80;99.90;;;;;;5048507;28;20041;-65
2022/09/23 01:08:57;;;;;;;34.63;28.48;;;8.80;99.90;;;;;;5053356;28;20083;-65
2022/09/23 01:12:02;;;;;;;39.30;29.45;;;8.80;99.90;;;;;;5046612;28;20064;-65
2022/09/23 01:14:30;;;;;;;34.10;26.38;;;8.90;99.90;;;;;;5015211;28;20138;-65
2022/09/23 01:17:08;;;;;;;35.00;28.60;;;8.90;99.90;;;;;;5052639;28;20033;-65
2022/09/23 01:20:02;;;;;;;35.22;27.52;;;8.80;99.90;;;;;;5053060;28;20041;-65
2022/09/23 01:22:30;;;;;;;31.52;25.33;;;8.80;99.90;;;;;;5048342;28;20037;-65
2022/09/23 01:25:13;;;;;;;33.67;26.15;;;8.70;99.90;;;;;;5052108;28;20086;-65
2022/09/23 01:28:15;;;;;;;33.00;26.10;;;8.70;99.90;;;;;;5049898;28;20134;-65
2022/09/23 01:30:52;;;;;;;33.85;27.40;;;8.60;99.90;;;;;;5040188;28;20191;-65
2022/09/23 01:33:33;;;;;;;32.08;26.63;;;8.60;99.90;;;;;;5035330;28;20534;-65
2022/09/23 01:36:17;;;;;;;30.30;23.73;;;8.60;99.90;;;;;;5048506;28;20387;-65
2022/09/23 01:39:02;;;;;;;30.77;24.75;;;8.60;99.90;;;;;;5030489;28;20095;-65
2022/09/23 01:41:33;;;;;;;31.23;26.27;;;8.50;99.90;;;;;;5052918;28;20073;-65
2022/09/23 01:44:07;;;;;;;30.05;25.02;;;8.50;99.90;;;;;;5053011;28;20097;-65
2022/09/23 01:46:41;;;;;;;35.03;26.27;;;8.40;99.90;;;;;;5047138;28;20048;-65
2022/09/23 01:49:24;;;;;;;31.75;26.83;;;8.40;99.90;;;;;;5045127;28;20036;-65
2022/09/23 01:51:59;;;;;;;28.80;23.35;;;8.40;99.90;;;;;;5051617;28;20490;-65
2022/09/23 01:54:37;;;;;;;34.58;26.95;;;8.40;99.90;;;;;;5041817;28;20037;-65
2022/09/23 01:57:19;;;;;;;32.97;26.88;;;8.40;99.90;;;;;;5049388;28;20556;-65
2022/09/23 01:59:54;;;;;;;34.72;26.25;;;8.40;99.90;;;;;;5035031;28;20044;-65
2022/09/23 02:02:30;;;;;;;30.98;25.10;;;8.40;99.90;;;;;;5039863;28;20048;-65
2022/09/23 02:05:34;;;;;;;30.90;26.30;;;8.40;99.90;;;;;;5045411;28;20056;-65
2022/09/23 02:08:06;;;;;;;35.17;26.15;;;8.40;99.90;;;;;;5007809;28;20079;-66
2022/09/23 02:10:40;;;;;;;33.58;26.58;;;8.40;99.90;;;;;;5052834;28;20449;-65
2022/09/23 02:13:24;;;;;;;31.67;25.33;;;8.40;99.90;;;;;;5040315;28;20037;-65
2022/09/23 02:15:54;;;;;;;36.13;26.83;;;8.40;99.90;;;;;;5049500;28;20037;-65
2022/09/23 02:18:25;;;;;;;32.75;25.83;;;8.40;99.90;;;;;;5044955;28;20030;-65
2022/09/23 02:20:57;;;;;;;32.72;25.70;;;8.40;99.90;;;;;;5041672;28;20044;-65
2022/09/23 02:23:30;;;;;;;31.30;24.70;;;8.30;99.90;;;;;;5052101;28;20033;-65
2022/09/23 02:26:13;;;;;;;32.60;25.33;;;8.30;99.90;;;;;;5051735;28;20033;-65
2022/09/23 02:29:19;;;;;;;27.20;22.50;;;8.20;99.90;;;;;;5045577;28;20041;-65
2022/09/23 02:31:57;;;;;;;31.88;25.73;;;8.10;99.90;;;;;;4989505;28;20043;-65
2022/09/23 02:34:28;;;;;;;32.45;25.58;;;8.00;99.90;;;;;;4989306;28;20034;-65
2022/09/23 02:37:12;;;;;;;;;;;7.90;99.90;;;;;;5020865;28;20107;-65
2022/09/23 02:40:26;;;;;;;30.95;24.98;;;7.90;99.90;;;;;;5051613;28;19916;-65
2022/09/23 02:43:13;;;;;;;28.25;21.98;;;7.90;99.90;;;;;;5008160;28;20507;-65
2022/09/23 02:45:39;;;;;;;31.67;25.08;;;7.90;99.90;;;;;;5046178;28;20063;-65
2022/09/23 02:48:13;;;;;;;31.55;25.55;;;7.90;99.90;;;;;;5051810;28;20487;-65
2022/09/23 02:50:39;;;;;;;27.95;22.73;;;7.90;99.90;;;;;;5046723;28;20046;-65
2022/09/23 02:53:06;;;;;;;28.45;23.30;;;7.80;99.90;;;;;;5036124;28;20033;-65
2022/09/23 02:55:32;;;;;;;28.65;21.80;;;7.70;99.90;;;;;;5049821;28;20064;-65
2022/09/23 02:58:00;;;;;;;30.65;23.83;;;7.60;99.90;;;;;;5051339;28;20041;-65
2022/09/23 03:00:46;;;;;;;27.17;22.08;;;7.50;99.90;;;;;;5033815;28;20048;-65
2022/09/23 03:03:35;;;;;;;33.50;25.27;;;7.50;99.90;;;;;;5043354;28;20073;-65
2022/09/23 03:06:14;;;;;;;29.52;22.45;;;7.50;99.90;;;;;;5050407;28;20399;-65
2022/09/23 03:08:49;;;;;;;26.02;21.25;;;7.50;99.90;;;;;;5046924;28;20522;-65
2022/09/23 03:11:16;;;;;;;26.27;21.38;;;7.50;99.90;;;;;;5050583;28;20037;-65
2022/09/23 03:14:03;;;;;;;27.23;21.65;;;7.40;99.90;;;;;;5049875;28;20699;-65
2022/09/23 03:16:46;;;;;;;30.98;24.95;;;7.40;99.90;;;;;;5042737;28;20117;-65
2022/09/23 03:19:15;;;;;;;29.35;24.13;;;7.40;99.90;;;;;;5036028;28;20514;-65
2022/09/23 03:21:50;;;;;;;33.17;26.40;;;7.50;99.90;;;;;;5050446;28;20057;-65
2022/09/23 03:24:20;;;;;;;32.33;24.63;;;7.40;99.90;;;;;;5048720;28;20515;-65
2022/09/23 03:26:47;;;;;;;33.80;26.13;;;7.40;99.90;;;;;;5045096;28;20033;-65
2022/09/23 03:29:14;;;;;;;31.20;24.23;;;7.40;99.90;;;;;;5050791;28;20048;-65
2022/09/23 03:31:41;;;;;;;35.60;25.75;;;7.40;99.90;;;;;;5050682;28;20456;-65
2022/09/23 03:34:17;;;;;;;30.73;22.15;;;7.40;99.90;;;;;;5048397;28;20510;-65
2022/09/23 03:36:52;;;;;;;34.90;25.95;;;7.40;99.90;;;;;;5045108;28;20116;-65
2022/09/23 03:39:33;;;;;;;29.48;23.05;;;7.40;99.90;;;;;;5050512;28;20067;-65
2022/09/23 03:42:03;;;;;;;29.30;21.83;;;7.40;99.90;;;;;;5041816;28;20041;-65
2022/09/23 03:44:36;;;;;;;32.35;24.15;;;7.40;99.90;;;;;;5040649;28;20044;-65
2022/09/23 03:47:02;;;;;;;35.85;26.00;;;7.40;99.90;;;;;;5048530;28;20051;-64
2022/09/23 03:49:34;;;;;;;29.15;22.58;;;7.40;99.90;;;;;;5044755;28;20041;-65
2022/09/23 03:52:01;;;;;;;23.58;19.17;;;7.30;99.90;;;;;;5049937;28;20040;-65
2022/09/23 03:54:28;;;;;;;25.35;20.75;;;7.30;99.90;;;;;;5050813;28;20033;-65
2022/09/23 03:56:56;;;;;;;27.33;21.05;;;7.20;99.90;;;;;;5042797;28;20094;-65
2022/09/23 03:59:23;;;;;;;26.05;21.67;;;7.20;99.90;;;;;;5037721;28;20041;-65
2022/09/23 04:01:49;;;;;;;27.80;21.10;;;7.10;99.90;;;;;;5049367;28;20108;-65
2022/09/23 04:04:15;;;;;;;26.20;21.05;;;7.00;99.90;;;;;;5050282;28;20112;-64
2022/09/23 04:06:40;;;;;;;24.67;19.67;;;7.00;99.90;;;;;;5049808;28;20040;-64
2022/09/23 04:09:06;;;;;;;24.42;20.40;;;6.90;99.90;;;;;;5021143;28;20047;-65
2022/09/23 04:11:32;;;;;;;25.15;20.42;;;6.90;99.90;;;;;;5049736;28;20438;-65
2022/09/23 04:13:58;;;;;;;26.55;21.27;;;6.80;99.90;;;;;;5049388;28;20033;-65
2022/09/23 04:16:24;;;;;;;26.27;20.48;;;6.70;99.90;;;;;;5043611;28;20033;-65
2022/09/23 04:18:49;;;;;;;24.92;19.52;;;6.60;99.90;;;;;;5039434;28;20507;-65
2022/09/23 04:21:15;;;;;;;23.58;19.58;;;6.50;99.90;;;;;;5046925;28;20079;-65
2022/09/23 04:23:41;;;;;;;24.27;19.58;;;6.50;99.90;;;;;;5050360;28;20099;-65
2022/09/23 04:26:06;;;;;;;24.00;19.38;;;6.50;99.90;;;;;;5047110;28;20645;-65
2022/09/23 04:28:33;;;;;;;23.92;19.63;;;6.50;99.90;;;;;;5038661;28;20045;-65
2022/09/23 04:31:03;;;;;;;29.67;21.33;;;6.50;99.90;;;;;;5046249;28;20458;-65
2022/09/23 04:33:28;;;;;;;29.63;22.73;;;6.60;99.90;;;;;;5038429;28;20103;-65
2022/09/23 04:35:54;;;;;;;28.60;20.98;;;6.70;99.90;;;;;;5042402;28;20491;-65
2022/09/23 04:38:20;;;;;;;24.83;18.75;;;6.80;99.90;;;;;;5050154;28;20064;-65
2022/09/23 04:40:47;;;;;;;26.77;20.70;;;6.80;99.90;;;;;;5024259;28;20081;-65
2022/09/23 04:43:14;;;;;;;26.58;21.08;;;6.80;99.90;;;;;;5042243;28;20044;-65
2022/09/23 04:45:43;;;;;;;26.80;20.42;;;6.70;99.90;;;;;;5048993;28;20076;-65
2022/09/23 04:48:11;;;;;;;24.77;19.63;;;6.60;99.90;;;;;;5044711;28;20093;-65
2022/09/23 04:50:38;;;;;;;28.75;20.52;;;6.60;99.90;;;;;;5046372;28;20495;-64
2022/09/23 04:53:04;;;;;;;26.35;20.70;;;6.60;99.90;;;;;;5049593;28;20033;-65
2022/09/23 04:55:30;;;;;;;26.52;19.98;;;6.60;99.90;;;;;;5028640;28;20045;-65
2022/09/23 04:57:56;;;;;;;24.83;19.58;;;6.60;99.90;;;;;;5026397;28;20044;-65
2022/09/23 05:00:25;;;;;;;23.77;19.08;;;6.60;99.90;;;;;;5043990;28;20112;-65
2022/09/23 05:02:51;;;;;;;25.20;19.90;;;6.60;99.90;;;;;;5049358;28;20640;-65
2022/09/23 05:05:19;;;;;;;23.00;17.50;;;6.70;99.90;;;;;;5039502;28;20090;-65
2022/09/23 05:07:49;;;;;;;22.65;17.85;;;6.70;99.90;;;;;;5048288;28;20064;-65
2022/09/23 05:10:15;;;;;;;21.73;17.27;;;6.60;99.90;;;;;;5049036;28;20045;-65
2022/09/23 05:12:41;;;;;;;24.35;18.25;;;6.50;99.90;;;;;;5048655;28;20127;-65
2022/09/23 05:15:07;;;;;;;22.73;18.25;;;6.50;99.90;;;;;;5039407;28;21342;-65
2022/09/23 05:17:33;;;;;;;25.00;19.40;;;6.50;99.90;;;;;;5044968;28;20510;-64
2022/09/23 05:19:58;;;;;;;23.80;18.40;;;6.50;99.90;;;;;;5047049;28;20052;-65
2022/09/23 05:22:28;;;;;;;26.75;20.35;;;6.50;99.90;;;;;;5041445;28;20040;-65
2022/09/23 05:24:54;;;;;;;24.50;19.75;;;6.60;99.90;;;;;;5041793;28;20045;-65
2022/09/23 05:27:20;;;;;;;27.38;19.52;;;6.70;99.90;;;;;;5048707;28;20051;-65
2022/09/23 05:29:46;;;;;;;25.48;17.88;;;6.70;99.90;;;;;;5043858;28;20044;-65
2022/09/23 05:32:13;;;;;;;26.42;20.42;;;6.70;99.90;;;;;;5042975;28;20029;-64
2022/09/23 05:34:39;;;;;;;31.58;21.80;;;6.70;99.90;;;;;;5050227;28;20105;-65
2022/09/23 05:37:04;;;;;;;25.33;19.92;;;6.70;99.90;;;;;;5045801;28;20076;-66
2022/09/23 05:39:30;;;;;;;27.85;21.42;;;6.80;99.90;;;;;;5039932;28;20052;-65
2022/09/23 05:41:56;;;;;;;30.02;17.60;;;6.80;99.90;;;;;;5049697;28;20116;-65
2022/09/23 05:44:21;;;;;;;21.75;16.80;;;6.80;99.90;;;;;;5032004;28;20064;-65
2022/09/23 05:46:47;;;;;;;29.40;20.20;;;6.70;99.90;;;;;;5045416;28;20034;-65
2022/09/23 05:49:13;;;;;;;29.50;20.23;;;6.80;99.90;;;;;;5041359;28;20120;-65
2022/09/23 05:51:39;;;;;;;27.27;19.85;;;6.90;99.90;;;;;;5044322;28;20080;-66
2022/09/23 05:54:04;;;;;;;29.75;19.17;;;6.90;99.90;;;;;;5047413;28;20040;-65
2022/09/23 05:56:32;;;;;;;31.33;20.85;;;7.10;99.90;;;;;;5044450;28;20044;-65
2022/09/23 05:58:59;;;;;;;32.28;20.73;;;7.20;99.90;;;;;;5034473;28;20052;-65
2022/09/23 06:01:32;;;;;;;30.45;20.73;;;7.20;99.90;;;;;;5052474;28;20120;-66
2022/09/23 06:03:58;;;;;;;30.50;19.58;;;7.40;99.90;;;;;;5046708;28;20112;-65
2022/09/23 06:06:29;;;;;;;27.60;19.73;;;7.50;99.90;;;;;;5020312;28;20044;-66
2022/09/23 06:08:57;;;;;;;31.95;20.35;;;7.60;99.90;;;;;;5017745;28;20044;-65
2022/09/23 06:11:23;;;;;;;28.67;20.50;;;7.70;99.90;;;;;;5047014;28;20131;-65
2022/09/23 06:13:53;;;;;;;30.20;21.10;;;7.80;99.90;;;;;;5039283;28;20152;-65
2022/09/23 06:16:18;;;;;;;28.73;20.52;;;7.90;99.90;;;;;;5049377;28;20033;-65
2022/09/23 06:18:44;;;;;;;28.63;20.45;;;8.00;99.90;;;;;;5050845;28;20036;-65
2022/09/23 06:21:15;;;;;;;29.00;20.40;;;8.10;99.90;;;;;;5040922;28;20043;-65
2022/09/23 06:23:42;;;;;;;30.63;20.75;;;8.20;99.90;;;;;;5044908;28;20037;-65
2022/09/23 06:26:10;;;;;;;32.50;22.35;;;8.40;99.90;;;;;;5040669;28;20150;-64
2022/09/23 06:28:37;;;;;;;29.42;21.42;;;8.50;99.90;;;;;;5040290;28;20048;-65
2022/09/23 06:31:07;;;;;;;30.17;21.38;;;8.70;99.90;;;;;;5046452;28;20041;-65
2022/09/23 06:33:33;;;;;;;30.38;21.40;;;8.80;99.90;;;;;;5051420;28;20091;-64
2022/09/23 06:36:01;;;;;;;33.42;21.65;;;9.00;99.90;;;;;;5044417;28;20036;-66
2022/09/23 06:38:28;;;;;;;31.67;21.08;;;9.20;99.90;;;;;;5020151;28;20413;-65
2022/09/23 06:40:55;;;;;;;30.45;21.15;;;9.30;99.90;;;;;;5034348;28;20045;-66
2022/09/23 06:43:25;;;;;;;30.58;21.52;;;9.50;99.90;;;;;;5042903;28;20037;-66
2022/09/23 06:45:55;;;;;;;29.48;20.33;;;9.60;99.90;;;;;;5037805;28;20305;-66
2022/09/23 06:48:21;;;;;;;30.92;21.35;;;9.70;99.90;;;;;;5044759;28;20392;-66
2022/09/23 06:50:49;;;;;;;31.08;22.08;;;9.80;99.90;;;;;;5048044;28;20078;-69
2022/09/23 06:53:16;;;;;;;29.98;22.27;;;9.90;99.90;;;;;;5037969;28;20106;-63
2022/09/23 06:55:42;;;;;;;27.55;20.23;;;10.00;99.90;;;;;;5044973;28;20044;-63
2022/09/23 06:58:09;;;;;;;29.17;21.10;;;10.10;99.90;;;;;;5048432;28;20052;-63
2022/09/23 07:00:35;;;;;;;29.35;21.25;;;10.10;99.90;;;;;;5039784;28;20033;-63
2022/09/23 07:03:04;;;;;;;31.13;21.00;;;10.20;99.90;;;;;;5042898;28;20455;-63
2022/09/23 07:05:30;;;;;;;26.52;20.20;;;10.20;99.90;;;;;;5043355;28;20056;-64
2022/09/23 07:07:56;;;;;;;28.33;20.42;;;10.30;99.90;;;;;;5041325;28;20041;-63
2022/09/23 07:10:22;;;;;;;27.52;18.90;;;10.40;99.90;;;;;;5047365;28;20068;-63
2022/09/23 07:12:47;;;;;;;25.33;19.35;;;10.40;99.90;;;;;;5047884;28;20152;-67
2022/09/23 07:15:15;;;;;;;26.80;18.73;;;10.40;99.90;;;;;;5038531;28;20506;-66
2022/09/23 07:17:41;;;;;;;24.23;18.77;;;10.50;99.90;;;;;;5041066;28;20087;-65
2022/09/23 07:20:09;;;;;;;27.20;18.70;;;10.60;99.90;;;;;;5043675;28;20043;-65
2022/09/23 07:22:36;;;;;;;27.85;20.00;;;10.70;99.90;;;;;;5042429;28;20090;-66
2022/09/23 07:25:01;;;;;;;27.33;19.30;;;10.80;99.90;;;;;;5045493;28;20041;-65
2022/09/23 07:27:27;;;;;;;25.90;18.40;;;10.80;99.90;;;;;;5028977;28;20056;-65
2022/09/23 07:29:53;;;;;;;23.45;18.33;;;10.90;99.90;;;;;;5045802;28;20047;-66
2022/09/23 07:32:20;;;;;;;26.70;18.30;;;11.00;99.90;;;;;;5013656;28;20053;-65
2022/09/23 07:34:47;;;;;;;26.17;18.70;;;11.10;99.90;;;;;;5033266;28;20037;-65
2022/09/23 07:37:13;;;;;;;23.38;18.00;;;11.10;99.90;;;;;;5040975;28;20033;-66
2022/09/23 07:39:40;;;;;;;28.35;18.50;;;11.20;99.90;;;;;;5029763;28;20053;-65
2022/09/23 07:42:06;;;;;;;25.95;18.33;;;11.30;99.90;;;;;;5046915;28;20518;-66
2022/09/23 07:44:32;;;;;;;24.98;18.23;;;11.40;99.90;;;;;;5040947;28;20037;-65
2022/09/23 07:46:59;;;;;;;21.08;17.05;;;11.50;99.90;;;;;;5045391;28;20068;-66
2022/09/23 07:49:26;;;;;;;25.85;18.15;;;11.60;99.90;;;;;;5046684;28;20049;-66
2022/09/23 07:51:53;;;;;;;22.02;18.00;;;11.70;99.90;;;;;;5038913;28;20034;-66
2022/09/23 07:54:19;;;;;;;23.45;17.55;;;11.80;99.90;;;;;;5017212;28;20037;-65
2022/09/23 07:56:45;;;;;;;25.48;18.42;;;12.00;99.90;;;;;;5028291;28;20041;-66
2022/09/23 07:59:14;;;;;;;23.17;17.75;;;12.00;99.90;;;;;;5041492;28;20037;-65
2022/09/23 08:01:46;;;;;;;24.25;18.05;;;12.10;99.90;;;;;;5037043;28;20550;-66
2022/09/23 08:04:18;;;;;;;23.08;17.27;;;12.20;99.90;;;;;;5047297;28;20069;-66
2022/09/23 08:06:49;;;;;;;22.23;17.60;;;12.30;99.90;;;;;;5042626;28;20037;-66
2022/09/23 08:09:17;;;;;;;26.65;17.52;;;12.30;99.90;;;;;;5035548;28;20033;-65
2022/09/23 08:11:43;;;;;;;23.02;16.98;;;12.40;99.90;;;;;;5045515;28;20474;-66
2022/09/23 08:14:12;;;;;;;24.92;17.38;;;12.40;99.90;;;;;;5046752;28;20065;-66
2022/09/23 08:16:38;;;;;;;21.55;16.65;;;12.50;99.90;;;;;;5028457;28;20036;-65
2022/09/23 08:19:05;;;;;;;20.35;16.77;;;12.60;99.90;;;;;;5041136;28;20115;-66
2022/09/23 08:21:31;;;;;;;19.60;16.17;;;12.70;99.90;;;;;;5027092;28;20119;-66
2022/09/23 08:23:57;;;;;;;20.98;15.75;;;12.80;99.90;;;;;;5044157;28;20122;-67
2022/09/23 08:26:23;;;;;;;22.13;16.00;;;12.90;99.90;;;;;;5039702;28;20068;-66
2022/09/23 08:28:53;;;;;;;20.48;16.58;;;12.90;99.90;;;;;;5043180;28;20138;-65
2022/09/23 08:31:22;;;;;;;19.98;15.90;;;13.00;99.90;;;;;;5046963;28;20499;-66
2022/09/23 08:33:54;;;;;;;19.90;16.08;;;13.00;99.90;;;;;;5043312;28;20048;-66
2022/09/23 08:36:20;;;;;;;25.23;17.35;;;13.10;99.90;;;;;;5041158;28;20541;-66
2022/09/23 08:38:45;;;;;;;21.30;16.42;;;13.30;99.90;;;;;;5046585;28;20045;-65
2022/09/23 08:41:29;;;;;;;23.45;15.50;;;13.30;99.90;;;;;;5042597;28;20037;-66
2022/09/23 08:44:12;;;;;;;22.27;15.20;;;13.40;99.90;;;;;;5040051;28;20045;-66
2022/09/23 08:46:48;;;;;;;19.92;15.23;;;13.40;99.90;;;;;;5045499;28;20044;-66
2022/09/23 08:49:24;;;;;;;19.60;15.20;;;13.40;99.90;;;;;;5025656;28;20081;-66
2022/09/23 08:51:53;;;;;;;22.05;17.15;;;13.50;99.90;;;;;;5039548;28;20045;-66
2022/09/23 08:54:19;;;;;;;23.70;16.20;;;13.60;99.90;;;;;;5046504;28;20029;-66
2022/09/23 08:56:51;;;;;;;20.00;15.88;;;13.60;99.90;;;;;;5046631;28;20048;-66
2022/09/23 08:59:39;;;;;;;22.15;15.77;;;13.70;99.90;;;;;;5038897;28;20726;-66
2022/09/23 09:02:21;;;;;;;22.20;15.05;;;13.80;99.90;;;;;;5039919;28;20040;-66
2022/09/23 09:04:52;;;;;;;18.17;15.18;;;13.80;99.90;;;;;;5049933;28;20040;-66
2022/09/23 09:07:23;;;;;;;29.75;15.73;;;13.90;99.90;;;;;;5045972;28;20072;-65
2022/09/23 09:10:09;;;;;;;25.58;15.85;;;14.00;99.90;;;;;;5037911;28;20048;-65
2022/09/23 09:12:44;;;;;;;18.63;14.85;;;14.10;99.90;;;;;;5038457;28;20073;-66
2022/09/23 09:15:14;;;;;;;20.40;14.77;;;14.20;99.90;;;;;;5024931;28;20038;-66
2022/09/23 09:18:00;;;;;;;25.58;15.50;;;14.40;99.90;;;;;;5043641;28;20037;-65
2022/09/23 09:20:48;;;;;;;18.95;14.73;;;14.50;99.90;;;;;;5050522;28;20052;-66
2022/09/23 09:23:14;;;;;;;20.23;15.80;;;14.60;99.90;;;;;;5050533;28;20048;-66
2022/09/23 09:25:45;;;;;;;19.65;14.85;;;14.70;99.90;;;;;;5040517;28;20139;-66
2022/09/23 09:28:19;;;;;;;20.63;15.43;;;14.80;99.90;;;;;;5042275;28;20529;-65
2022/09/23 09:30:49;;;;;;;22.30;15.05;;;14.80;99.90;;;;;;5049875;28;20048;-66
2022/09/23 09:33:17;;;;;;;20.17;15.20;;;14.90;99.90;;;;;;5026967;28;20783;-67
2022/09/23 09:36:01;;;;;;;20.35;15.77;;;15.00;99.90;;;;;;5046717;28;20095;-65
2022/09/23 09:38:27;;;;;;;20.25;14.65;;;15.10;99.90;;;;;;5050268;28;20033;-66
2022/09/23 09:40:54;;;;;;;17.50;14.40;;;15.20;99.90;;;;;;5043899;28;20049;-66
2022/09/23 09:43:22;;;;;;;18.67;14.48;;;15.30;99.90;;;;;;5042565;28;20403;-66
2022/09/23 09:46:22;;;;;;;23.15;14.27;;;15.40;99.90;;;;;;5048993;28;20045;-66
2022/09/23 09:48:53;;;;;;;19.88;15.05;;;15.40;99.90;;;;;;5043266;28;20562;-66
2022/09/23 09:51:21;;;;;;;18.40;14.73;;;15.50;99.90;;;;;;5049139;28;20040;-66
2022/09/23 09:53:50;;;;;;;17.55;14.88;;;15.60;99.90;;;;;;5049237;28;20041;-66
2022/09/23 09:56:30;;;;;;;20.25;14.82;;;15.70;99.90;;;;;;5049114;28;20037;-66
2022/09/23 09:59:07;;;;;;;21.08;14.88;;;15.80;99.90;;;;;;5040915;28;20095;-65
2022/09/23 10:01:34;;;;;;;24.58;14.35;;;16.00;99.90;;;;;;5045930;28;20041;-65
2022/09/23 10:04:02;;;;;;;19.00;13.55;;;16.10;99.90;;;;;;5049387;28;20495;-66
2022/09/23 10:06:33;;;;;;;17.95;13.27;;;16.20;99.90;;;;;;5040974;28;20072;-65
2022/09/23 10:09:18;;;;;;;18.05;13.88;;;16.10;99.90;;;;;;5049209;28;20094;-66
2022/09/23 10:12:17;;;;;;;17.48;12.98;;;16.10;99.90;;;;;;5049481;28;20153;-66
2022/09/23 10:14:50;;;;;;;15.90;12.82;;;16.00;99.90;;;;;;5045950;28;20086;-66
2022/09/23 10:17:38;;;;;;;16.98;13.88;;;15.90;99.90;;;;;;5043154;28;20587;-66
2022/09/23 10:20:08;;;;;;;17.08;13.55;;;15.90;99.90;;;;;;5023610;28;20128;-66
2022/09/23 10:22:41;;;;;;;16.88;13.13;;;15.80;99.90;;;;;;5043360;28;20128;-66
2022/09/23 10:25:14;;;;;;;17.88;12.82;;;15.80;99.90;;;;;;5046701;28;20033;-66
2022/09/23 10:27:40;;;;;;;19.13;13.48;;;15.60;99.90;;;;;;5047737;28;20045;-66
2022/09/23 10:30:26;;;;;;;17.92;13.38;;;15.60;99.90;;;;;;5048925;28;20056;-67
2022/09/23 10:32:53;;;;;;;15.77;13.55;;;15.40;99.90;;;;;;5043962;28;20568;-66
2022/09/23 10:35:25;;;;;;;17.63;13.60;;;15.40;99.90;;;;;;5051407;28;20033;-66
2022/09/23 10:37:59;;;;;;;18.83;13.82;;;15.40;99.90;;;;;;5028275;28;20141;-66
2022/09/23 10:46:38;;;;;;;18.52;14.82;;;15.60;99.90;;;;;;5045000;28;19916;-66
2022/09/23 10:49:16;;;;;;;17.75;13.95;;;15.80;99.90;;;;;;5026030;28;20120;-65
2022/09/23 10:51:45;;;;;;;19.17;14.35;;;16.00;99.90;;;;;;5050679;28;20079;-66
2022/09/23 10:54:28;;;;;;;18.77;15.45;;;16.10;99.90;;;;;;5051307;28;20040;-66
2022/09/23 10:57:36;;;;;;;19.25;13.60;;;16.30;99.90;;;;;;5041908;28;20041;-66
2022/09/23 11:00:13;;;;;;;18.25;13.90;;;16.40;99.90;;;;;;5051416;28;20049;-66
2022/09/23 11:02:57;;;;;;;17.30;13.38;;;16.40;99.90;;;;;;5047269;28;20400;-65
2022/09/23 11:05:22;;;;;;;17.52;13.75;;;16.50;99.90;;;;;;5042603;28;20048;-65
2022/09/23 11:08:17;;;;;;;18.95;13.95;;;16.60;99.90;;;;;;5049550;28;20045;-64
2022/09/23 11:11:18;;;;;;;15.10;12.95;;;16.60;99.90;;;;;;5046169;28;20052;-64
2022/09/23 11:14:21;;;;;;;18.90;14.32;;;16.70;99.90;;;;;;5025541;28;20080;-65
2022/09/23 11:17:13;;;;;;;15.82;13.32;;;16.80;99.90;;;;;;5045031;28;20413;-64
2022/09/23 11:20:16;;;;;;;16.33;13.18;;;16.90;99.90;;;;;;5042237;28;20048;-64
2022/09/23 11:23:19;;;;;;;20.17;13.25;;;17.00;99.90;;;;;;5046710;28;20047;-64
2022/09/23 11:26:06;;;;;;;17.42;12.98;;;16.80;99.90;;;;;;5050649;28;20075;-64
2022/09/23 11:28:47;;;;;;;19.48;13.52;;;16.90;99.90;;;;;;5046746;28;20561;-64
2022/09/23 11:31:34;;;;;;;17.10;13.82;;;16.90;99.90;;;;;;5045155;28;20411;-64
2022/09/23 11:34:11;;;;;;;15.65;12.60;;;17.00;99.90;;;;;;5041914;28;20781;-64
2022/09/23 11:36:47;;;;;;;15.85;12.55;;;16.90;99.90;;;;;;5051127;28;20099;-65
2022/09/23 11:39:36;;;;;;;17.42;13.80;;;16.80;99.90;;;;;;5039967;28;20051;-65
2022/09/23 11:42:08;;;;;;;16.73;12.50;;;16.80;99.90;;;;;;5051619;28;20103;-64
2022/09/23 11:44:49;;;;;;;15.60;12.77;;;16.80;99.90;;;;;;5030368;28;20041;-64
2022/09/23 11:47:31;;;;;;;14.90;12.93;;;16.70;99.90;;;;;;5046739;28;20116;-65
2022/09/23 11:50:18;;;;;;;15.55;12.77;;;16.70;99.90;;;;;;5045194;28;20041;-65
2022/09/23 11:52:55;;;;;;;18.25;12.57;;;16.80;99.90;;;;;;5041535;28;20033;-63
2022/09/23 11:55:31;;;;;;;18.23;13.15;;;16.80;99.90;;;;;;5049720;28;20410;-64
2022/09/23 11:58:11;;;;;;;18.42;12.43;;;16.90;99.90;;;;;;5049915;28;20056;-64
2022/09/23 12:00:45;;;;;;;18.70;13.00;;;16.90;99.90;;;;;;5035316;28;20040;-61
2022/09/23 12:03:32;;;;;;;17.08;12.93;;;17.00;99.90;;;;;;5034646;28;20041;-65
2022/09/23 12:06:45;;;;;;;19.27;13.10;;;17.00;99.90;;;;;;5048680;28;20055;-63
2022/09/23 12:09:24;;;;;;;16.40;12.95;;;17.10;99.90;;;;;;5007121;28;20049;-64
2022/09/23 12:12:02;;;;;;;15.70;12.13;;;17.20;99.90;;;;;;5044302;28;20048;-65
2022/09/23 12:14:36;;;;;;;18.13;12.95;;;17.20;99.90;;;;;;5043654;28;20037;-66
2022/09/23 12:17:02;;;;;;;17.17;12.85;;;17.30;99.90;;;;;;5051970;28;20041;-64
2022/09/23 12:19:58;;;;;;;19.13;14.07;;;17.30;99.90;;;;;;5038475;28;20037;-64
2022/09/23 12:23:05;;;;;;;19.92;12.38;;;17.30;99.90;;;;;;5046913;22;20067;-64
2022/09/23 12:25:48;;;;;;;19.90;13.60;;;17.30;99.90;;;;;;5027732;28;20046;-63
2022/09/23 12:28:26;;;;;;;19.52;13.27;;;17.30;99.90;;;;;;5030133;28;20038;-64
2022/09/23 12:30:54;;;;;;;17.65;13.45;;;17.20;99.90;;;;;;5025604;28;20030;-64
2022/09/23 12:33:21;;;;;;;17.63;12.38;;;17.20;99.90;;;;;;5028978;28;20045;-63
2022/09/23 12:35:47;;;;;;;18.42;12.98;;;17.20;99.90;;;;;;5026966;28;20076;-64
2022/09/23 12:38:48;;;;;;;17.25;12.60;;;17.10;99.90;;;;;;5032865;28;20032;-64
2022/09/23 12:41:37;;;;;;;17.58;13.23;;;17.10;99.90;;;;;;5023210;28;20034;-64
2022/09/23 12:44:30;;;;;;;15.77;12.52;;;17.10;99.90;;;;;;5026781;28;20033;-64
2022/09/23 12:47:19;;;;;;;20.58;12.82;;;17.10;99.90;;;;;;5032492;28;20037;-64
2022/09/23 12:49:46;;;;;;;18.08;13.00;;;17.10;99.90;;;;;;5032378;28;20286;-64
2022/09/23 12:52:15;;;;;;;16.52;13.05;;;17.10;99.90;;;;;;5030846;28;20033;-64
2022/09/23 12:54:46;;;;;;;19.77;13.32;;;17.10;99.90;;;;;;5034049;28;20038;-65
2022/09/23 12:57:12;;;;;;;18.92;13.50;;;17.10;99.90;;;;;;5034115;28;20091;-65
2022/09/23 12:59:51;;;;;;;18.20;13.13;;;17.10;99.90;;;;;;5015121;28;20253;-65
2022/09/23 13:02:41;;;;;;;18.85;13.15;;;17.10;99.90;;;;;;5012792;28;20120;-65
2022/09/23 13:07:54;;;;;;;16.35;12.40;;;17.10;99.90;;;;;;5031266;28;20087;-65
2022/09/23 13:10:51;;;;;;;19.25;12.77;;;17.10;99.90;;;;;;5014471;28;20550;-65